sensor_id;sensor_type;location;lat;lon;timestamp;P1;durP1;ratioP1;P2;durP2;ratioP2
19673;SDS011;9986;50.610;7.230;2023-03-01T00:01:21;12.20;;;6.87;;
19673;SDS011;9986;50.610;7.230;2023-03-01T00:04:01;7.93;;;6.47;;
19673;SDS011;9986;50.610;7.230;2023-03-01T00:06:39;7.17;;;6.47;;
19673;SDS011;9986;50.610;7.230;2023-03-01T00:09:17;6.73;;;5.87;;
19673;SDS011;9986;50.610;7.230;2023-03-01T00:11:55;7.47;;;6.67;;
19673;SDS011;9986;50.610;7.230;2023-03-01T00:17:06;7.40;;;6.33;;
19673;SDS011;9986;50.610;7.230;2023-03-01T00:19:46;7.77;;;6.47;;
19673;SDS011;9986;50.610;7.230;2023-03-01T00:24:54;7.00;;;6.30;;
19673;SDS011;9986;50.610;7.230;2023-03-01T00:30:09;7.43;;;6.43;;
19673;SDS011;9986;50.610;7.230;2023-03-01T00:35:21;9.60;;;7.40;;
19673;SDS011;9986;50.610;7.230;2023-03-01T00:37:58;7.37;;;6.40;;
19673;SDS011;9986;50.610;7.230;2023-03-01T00:40:36;8.03;;;6.60;;
19673;SDS011;9986;50.610;7.230;2023-03-01T00:43:19;8.57;;;6.47;;
19673;SDS011;9986;50.610;7.230;2023-03-01T00:51:16;7.37;;;6.60;;
19673;SDS011;9986;50.610;7.230;2023-03-01T00:53:54;10.73;;;7.40;;
19673;SDS011;9986;50.610;7.230;2023-03-01T00:56:32;7.17;;;6.43;;
19673;SDS011;9986;50.610;7.230;2023-03-01T00:59:13;7.47;;;6.70;;
19673;SDS011;9986;50.610;7.230;2023-03-01T01:01:51;10.87;;;7.77;;
19673;SDS011;9986;50.610;7.230;2023-03-01T01:04:31;7.37;;;6.67;;
19673;SDS011;9986;50.610;7.230;2023-03-01T01:09:48;8.43;;;7.50;;
19673;SDS011;9986;50.610;7.230;2023-03-01T01:12:29;7.87;;;7.07;;
19673;SDS011;9986;50.610;7.230;2023-03-01T01:15:10;8.10;;;7.13;;
19673;SDS011;9986;50.610;7.230;2023-03-01T01:17:48;8.30;;;7.50;;
19673;SDS011;9986;50.610;7.230;2023-03-01T01:20:29;8.20;;;7.40;;
19673;SDS011;9986;50.610;7.230;2023-03-01T01:23:08;8.40;;;7.50;;
19673;SDS011;9986;50.610;7.230;2023-03-01T01:25:55;9.60;;;7.10;;
19673;SDS011;9986;50.610;7.230;2023-03-01T01:28:32;10.23;;;7.57;;
19673;SDS011;9986;50.610;7.230;2023-03-01T01:31:10;8.50;;;7.00;;
19673;SDS011;9986;50.610;7.230;2023-03-01T01:33:48;10.37;;;7.40;;
19673;SDS011;9986;50.610;7.230;2023-03-01T01:36:28;12.60;;;7.97;;
19673;SDS011;9986;50.610;7.230;2023-03-01T01:39:06;12.77;;;7.43;;
19673;SDS011;9986;50.610;7.230;2023-03-01T01:44:17;11.23;;;7.47;;
19673;SDS011;9986;50.610;7.230;2023-03-01T01:46:57;9.43;;;7.43;;
19673;SDS011;9986;50.610;7.230;2023-03-01T01:54:50;9.80;;;8.10;;
19673;SDS011;9986;50.610;7.230;2023-03-01T01:57:32;8.33;;;7.43;;
19673;SDS011;9986;50.610;7.230;2023-03-01T02:02:40;9.37;;;7.93;;
19673;SDS011;9986;50.610;7.230;2023-03-01T02:07:55;10.33;;;8.27;;
19673;SDS011;9986;50.610;7.230;2023-03-01T02:10:34;9.57;;;7.53;;
19673;SDS011;9986;50.610;7.230;2023-03-01T02:13:12;8.33;;;7.43;;
19673;SDS011;9986;50.610;7.230;2023-03-01T02:15:50;9.43;;;8.20;;
19673;SDS011;9986;50.610;7.230;2023-03-01T02:21:11;7.80;;;7.00;;
19673;SDS011;9986;50.610;7.230;2023-03-01T02:23:50;10.17;;;7.87;;
19673;SDS011;9986;50.610;7.230;2023-03-01T02:26:30;10.87;;;7.57;;
19673;SDS011;9986;50.610;7.230;2023-03-01T02:29:09;10.00;;;8.80;;
19673;SDS011;9986;50.610;7.230;2023-03-01T02:31:46;8.40;;;7.40;;
19673;SDS011;9986;50.610;7.230;2023-03-01T02:34:24;10.50;;;8.70;;
19673;SDS011;9986;50.610;7.230;2023-03-01T02:37:04;9.40;;;8.07;;
19673;SDS011;9986;50.610;7.230;2023-03-01T02:39:42;11.60;;;7.97;;
19673;SDS011;9986;50.610;7.230;2023-03-01T02:42:22;10.17;;;8.23;;
19673;SDS011;9986;50.610;7.230;2023-03-01T02:47:31;10.40;;;9.30;;
19673;SDS011;9986;50.610;7.230;2023-03-01T02:50:15;8.70;;;7.80;;
19673;SDS011;9986;50.610;7.230;2023-03-01T02:55:29;10.83;;;8.53;;
19673;SDS011;9986;50.610;7.230;2023-03-01T02:58:07;11.07;;;8.43;;
19673;SDS011;9986;50.610;7.230;2023-03-01T03:00:47;12.93;;;8.47;;
19673;SDS011;9986;50.610;7.230;2023-03-01T03:03:24;11.73;;;8.47;;
19673;SDS011;9986;50.610;7.230;2023-03-01T03:06:02;10.03;;;7.87;;
19673;SDS011;9986;50.610;7.230;2023-03-01T03:08:40;11.27;;;8.20;;
19673;SDS011;9986;50.610;7.230;2023-03-01T03:13:47;10.40;;;8.00;;
19673;SDS011;9986;50.610;7.230;2023-03-01T03:16:25;10.07;;;8.47;;
19673;SDS011;9986;50.610;7.230;2023-03-01T03:21:39;9.70;;;8.30;;
19673;SDS011;9986;50.610;7.230;2023-03-01T03:24:17;11.60;;;8.70;;
19673;SDS011;9986;50.610;7.230;2023-03-01T03:26:54;9.70;;;7.87;;
19673;SDS011;9986;50.610;7.230;2023-03-01T03:29:32;10.43;;;7.87;;
19673;SDS011;9986;50.610;7.230;2023-03-01T03:32:10;9.43;;;7.77;;
19673;SDS011;9986;50.610;7.230;2023-03-01T03:37:17;8.13;;;7.33;;
19673;SDS011;9986;50.610;7.230;2023-03-01T03:39:54;10.17;;;8.23;;
19673;SDS011;9986;50.610;7.230;2023-03-01T03:45:04;10.20;;;8.10;;
19673;SDS011;9986;50.610;7.230;2023-03-01T03:47:42;8.77;;;7.83;;
19673;SDS011;9986;50.610;7.230;2023-03-01T03:50:20;11.27;;;8.27;;
19673;SDS011;9986;50.610;7.230;2023-03-01T03:55:27;9.57;;;8.03;;
19673;SDS011;9986;50.610;7.230;2023-03-01T04:00:34;10.60;;;8.30;;
19673;SDS011;9986;50.610;7.230;2023-03-01T04:03:13;10.17;;;8.10;;
19673;SDS011;9986;50.610;7.230;2023-03-01T04:05:51;10.37;;;8.50;;
19673;SDS011;9986;50.610;7.230;2023-03-01T04:10:59;11.23;;;8.03;;
19673;SDS011;9986;50.610;7.230;2023-03-01T04:13:38;8.73;;;7.80;;
19673;SDS011;9986;50.610;7.230;2023-03-01T04:16:16;12.10;;;8.60;;
19673;SDS011;9986;50.610;7.230;2023-03-01T04:19:00;10.83;;;7.70;;
19673;SDS011;9986;50.610;7.230;2023-03-01T04:21:43;9.73;;;7.77;;
19673;SDS011;9986;50.610;7.230;2023-03-01T04:24:21;12.67;;;8.33;;
19673;SDS011;9986;50.610;7.230;2023-03-01T04:27:02;10.50;;;8.10;;
19673;SDS011;9986;50.610;7.230;2023-03-01T04:29:40;12.23;;;8.40;;
19673;SDS011;9986;50.610;7.230;2023-03-01T04:32:17;12.20;;;8.77;;
19673;SDS011;9986;50.610;7.230;2023-03-01T04:34:48;9.60;;;8.23;;
19673;SDS011;9986;50.610;7.230;2023-03-01T04:37:26;12.60;;;8.70;;
19673;SDS011;9986;50.610;7.230;2023-03-01T04:40:04;10.27;;;8.53;;
19673;SDS011;9986;50.610;7.230;2023-03-01T04:42:43;9.87;;;8.17;;
19673;SDS011;9986;50.610;7.230;2023-03-01T04:47:54;10.57;;;8.33;;
19673;SDS011;9986;50.610;7.230;2023-03-01T04:50:33;8.93;;;7.67;;
19673;SDS011;9986;50.610;7.230;2023-03-01T04:53:04;10.50;;;8.33;;
19673;SDS011;9986;50.610;7.230;2023-03-01T04:55:44;12.40;;;9.03;;
19673;SDS011;9986;50.610;7.230;2023-03-01T04:58:24;10.53;;;8.40;;
19673;SDS011;9986;50.610;7.230;2023-03-01T05:01:08;11.20;;;8.23;;
19673;SDS011;9986;50.610;7.230;2023-03-01T05:03:52;10.77;;;8.43;;
19673;SDS011;9986;50.610;7.230;2023-03-01T05:06:32;10.73;;;8.13;;
19673;SDS011;9986;50.610;7.230;2023-03-01T05:09:29;12.27;;;8.83;;
19673;SDS011;9986;50.610;7.230;2023-03-01T05:12:10;10.77;;;8.33;;
19673;SDS011;9986;50.610;7.230;2023-03-01T05:14:51;10.00;;;8.63;;
19673;SDS011;9986;50.610;7.230;2023-03-01T05:17:29;12.67;;;9.27;;
19673;SDS011;9986;50.610;7.230;2023-03-01T05:22:37;11.57;;;8.77;;
19673;SDS011;9986;50.610;7.230;2023-03-01T05:25:18;10.40;;;8.53;;
19673;SDS011;9986;50.610;7.230;2023-03-01T05:27:59;11.90;;;9.53;;
19673;SDS011;9986;50.610;7.230;2023-03-01T05:30:37;10.43;;;8.33;;
19673;SDS011;9986;50.610;7.230;2023-03-01T05:33:15;11.57;;;8.40;;
19673;SDS011;9986;50.610;7.230;2023-03-01T05:35:59;15.63;;;8.47;;
19673;SDS011;9986;50.610;7.230;2023-03-01T05:38:46;13.83;;;8.93;;
19673;SDS011;9986;50.610;7.230;2023-03-01T05:41:24;9.40;;;8.03;;
19673;SDS011;9986;50.610;7.230;2023-03-01T05:44:06;9.83;;;8.63;;
19673;SDS011;9986;50.610;7.230;2023-03-01T05:46:47;10.47;;;8.50;;
19673;SDS011;9986;50.610;7.230;2023-03-01T05:49:25;11.37;;;8.83;;
19673;SDS011;9986;50.610;7.230;2023-03-01T05:52:06;11.80;;;8.93;;
19673;SDS011;9986;50.610;7.230;2023-03-01T05:54:54;10.17;;;9.17;;
19673;SDS011;9986;50.610;7.230;2023-03-01T05:57:34;12.20;;;8.83;;
19673;SDS011;9986;50.610;7.230;2023-03-01T06:02:41;12.97;;;9.20;;
19673;SDS011;9986;50.610;7.230;2023-03-01T06:05:21;11.33;;;9.47;;
19673;SDS011;9986;50.610;7.230;2023-03-01T06:08:00;13.33;;;9.17;;
19673;SDS011;9986;50.610;7.230;2023-03-01T06:10:39;12.27;;;9.00;;
19673;SDS011;9986;50.610;7.230;2023-03-01T06:13:17;11.73;;;8.97;;
19673;SDS011;9986;50.610;7.230;2023-03-01T06:16:03;14.70;;;9.33;;
19673;SDS011;9986;50.610;7.230;2023-03-01T06:18:43;10.07;;;8.97;;
19673;SDS011;9986;50.610;7.230;2023-03-01T06:21:23;9.93;;;8.77;;
19673;SDS011;9986;50.610;7.230;2023-03-01T06:24:01;12.67;;;9.57;;
19673;SDS011;9986;50.610;7.230;2023-03-01T06:26:39;11.93;;;9.20;;
19673;SDS011;9986;50.610;7.230;2023-03-01T06:29:19;10.90;;;8.67;;
19673;SDS011;9986;50.610;7.230;2023-03-01T06:31:57;14.37;;;10.57;;
19673;SDS011;9986;50.610;7.230;2023-03-01T06:34:34;12.97;;;9.80;;
19673;SDS011;9986;50.610;7.230;2023-03-01T06:37:12;13.17;;;9.90;;
19673;SDS011;9986;50.610;7.230;2023-03-01T06:42:26;13.67;;;8.90;;
19673;SDS011;9986;50.610;7.230;2023-03-01T06:45:13;13.57;;;10.57;;
19673;SDS011;9986;50.610;7.230;2023-03-01T06:47:51;11.20;;;9.43;;
19673;SDS011;9986;50.610;7.230;2023-03-01T06:50:35;11.07;;;8.63;;
19673;SDS011;9986;50.610;7.230;2023-03-01T06:53:15;14.27;;;9.30;;
19673;SDS011;9986;50.610;7.230;2023-03-01T06:55:54;11.33;;;9.00;;
19673;SDS011;9986;50.610;7.230;2023-03-01T06:58:34;12.60;;;9.30;;
19673;SDS011;9986;50.610;7.230;2023-03-01T07:01:12;18.53;;;10.10;;
19673;SDS011;9986;50.610;7.230;2023-03-01T07:03:49;15.73;;;10.90;;
19673;SDS011;9986;50.610;7.230;2023-03-01T07:06:30;13.23;;;10.33;;
19673;SDS011;9986;50.610;7.230;2023-03-01T07:09:08;14.33;;;10.53;;
19673;SDS011;9986;50.610;7.230;2023-03-01T07:11:45;14.13;;;9.40;;
19673;SDS011;9986;50.610;7.230;2023-03-01T07:14:26;11.73;;;8.80;;
19673;SDS011;9986;50.610;7.230;2023-03-01T07:17:03;14.57;;;10.53;;
19673;SDS011;9986;50.610;7.230;2023-03-01T07:19:41;16.77;;;10.73;;
19673;SDS011;9986;50.610;7.230;2023-03-01T07:22:28;15.60;;;10.27;;
19673;SDS011;9986;50.610;7.230;2023-03-01T07:25:14;17.30;;;11.67;;
19673;SDS011;9986;50.610;7.230;2023-03-01T07:27:52;9.77;;;8.63;;
19673;SDS011;9986;50.610;7.230;2023-03-01T07:30:30;14.43;;;10.67;;
19673;SDS011;9986;50.610;7.230;2023-03-01T07:33:08;14.50;;;10.13;;
19673;SDS011;9986;50.610;7.230;2023-03-01T07:35:45;13.53;;;10.87;;
19673;SDS011;9986;50.610;7.230;2023-03-01T07:38:31;11.43;;;9.73;;
19673;SDS011;9986;50.610;7.230;2023-03-01T07:41:09;11.80;;;8.73;;
19673;SDS011;9986;50.610;7.230;2023-03-01T07:43:46;13.13;;;10.37;;
19673;SDS011;9986;50.610;7.230;2023-03-01T07:48:55;13.37;;;10.67;;
19673;SDS011;9986;50.610;7.230;2023-03-01T07:54:05;12.77;;;10.07;;
19673;SDS011;9986;50.610;7.230;2023-03-01T07:57:15;11.13;;;9.53;;
19673;SDS011;9986;50.610;7.230;2023-03-01T07:59:55;14.93;;;9.60;;
19673;SDS011;9986;50.610;7.230;2023-03-01T08:02:34;12.57;;;10.67;;
19673;SDS011;9986;50.610;7.230;2023-03-01T08:05:11;16.43;;;11.27;;
19673;SDS011;9986;50.610;7.230;2023-03-01T08:07:49;15.23;;;11.30;;
19673;SDS011;9986;50.610;7.230;2023-03-01T08:10:27;15.27;;;11.33;;
19673;SDS011;9986;50.610;7.230;2023-03-01T08:13:04;16.33;;;11.63;;
19673;SDS011;9986;50.610;7.230;2023-03-01T08:15:42;14.50;;;10.20;;
19673;SDS011;9986;50.610;7.230;2023-03-01T08:18:24;14.10;;;10.80;;
19673;SDS011;9986;50.610;7.230;2023-03-01T08:21:12;14.70;;;10.83;;
19673;SDS011;9986;50.610;7.230;2023-03-01T08:26:26;15.67;;;11.00;;
19673;SDS011;9986;50.610;7.230;2023-03-01T08:29:04;15.90;;;11.53;;
19673;SDS011;9986;50.610;7.230;2023-03-01T08:31:41;18.07;;;11.23;;
19673;SDS011;9986;50.610;7.230;2023-03-01T08:34:19;16.23;;;11.73;;
19673;SDS011;9986;50.610;7.230;2023-03-01T08:36:57;16.63;;;13.47;;
19673;SDS011;9986;50.610;7.230;2023-03-01T08:39:35;14.53;;;12.13;;
19673;SDS011;9986;50.610;7.230;2023-03-01T08:42:12;21.40;;;14.03;;
19673;SDS011;9986;50.610;7.230;2023-03-01T08:44:52;17.40;;;12.27;;
19673;SDS011;9986;50.610;7.230;2023-03-01T08:47:30;17.83;;;11.93;;
19673;SDS011;9986;50.610;7.230;2023-03-01T08:50:09;16.43;;;12.03;;
19673;SDS011;9986;50.610;7.230;2023-03-01T08:52:47;18.77;;;12.63;;
19673;SDS011;9986;50.610;7.230;2023-03-01T08:55:27;17.33;;;12.67;;
19673;SDS011;9986;50.610;7.230;2023-03-01T08:58:05;18.17;;;12.33;;
19673;SDS011;9986;50.610;7.230;2023-03-01T09:03:12;14.67;;;12.33;;
19673;SDS011;9986;50.610;7.230;2023-03-01T09:05:59;17.53;;;11.43;;
19673;SDS011;9986;50.610;7.230;2023-03-01T09:08:37;16.23;;;11.67;;
19673;SDS011;9986;50.610;7.230;2023-03-01T09:11:21;16.17;;;11.70;;
19673;SDS011;9986;50.610;7.230;2023-03-01T09:14:08;17.13;;;12.80;;
19673;SDS011;9986;50.610;7.230;2023-03-01T09:16:46;17.27;;;13.30;;
19673;SDS011;9986;50.610;7.230;2023-03-01T09:19:28;16.30;;;12.67;;
19673;SDS011;9986;50.610;7.230;2023-03-01T09:22:12;18.70;;;11.87;;
19673;SDS011;9986;50.610;7.230;2023-03-01T09:24:49;18.63;;;13.13;;
19673;SDS011;9986;50.610;7.230;2023-03-01T09:27:27;18.80;;;12.67;;
19673;SDS011;9986;50.610;7.230;2023-03-01T09:30:06;19.70;;;12.83;;
19673;SDS011;9986;50.610;7.230;2023-03-01T09:35:22;18.50;;;13.63;;
19673;SDS011;9986;50.610;7.230;2023-03-01T09:40:41;20.67;;;12.97;;
19673;SDS011;9986;50.610;7.230;2023-03-01T09:45:58;18.60;;;13.33;;
19673;SDS011;9986;50.610;7.230;2023-03-01T09:48:39;19.07;;;12.87;;
19673;SDS011;9986;50.610;7.230;2023-03-01T09:53:49;16.30;;;13.30;;
19673;SDS011;9986;50.610;7.230;2023-03-01T09:56:28;19.33;;;14.00;;
19673;SDS011;9986;50.610;7.230;2023-03-01T09:59:24;19.83;;;13.57;;
19673;SDS011;9986;50.610;7.230;2023-03-01T10:04:45;27.23;;;14.60;;
19673;SDS011;9986;50.610;7.230;2023-03-01T10:07:29;20.30;;;13.07;;
19673;SDS011;9986;50.610;7.230;2023-03-01T10:10:23;18.17;;;12.07;;
19673;SDS011;9986;50.610;7.230;2023-03-01T10:15:43;21.50;;;13.03;;
19673;SDS011;9986;50.610;7.230;2023-03-01T10:18:26;21.83;;;14.27;;
19673;SDS011;9986;50.610;7.230;2023-03-01T10:23:45;17.60;;;12.23;;
19673;SDS011;9986;50.610;7.230;2023-03-01T10:37:08;19.57;;;13.03;;
19673;SDS011;9986;50.610;7.230;2023-03-01T10:39:57;16.00;;;11.67;;
19673;SDS011;9986;50.610;7.230;2023-03-01T10:42:37;19.53;;;12.73;;
19673;SDS011;9986;50.610;7.230;2023-03-01T10:48:00;16.77;;;12.97;;
19673;SDS011;9986;50.610;7.230;2023-03-01T10:53:26;20.27;;;12.47;;
19673;SDS011;9986;50.610;7.230;2023-03-01T10:58:39;19.20;;;11.80;;
19673;SDS011;9986;50.610;7.230;2023-03-01T11:04:09;17.63;;;12.50;;
19673;SDS011;9986;50.610;7.230;2023-03-01T11:12:13;14.40;;;10.87;;
19673;SDS011;9986;50.610;7.230;2023-03-01T11:14:50;13.67;;;10.50;;
19673;SDS011;9986;50.610;7.230;2023-03-01T11:22:40;12.13;;;9.33;;
19673;SDS011;9986;50.610;7.230;2023-03-01T11:25:26;12.90;;;9.17;;
19673;SDS011;9986;50.610;7.230;2023-03-01T11:28:06;55.97;;;33.67;;
19673;SDS011;9986;50.610;7.230;2023-03-01T11:30:47;11.30;;;9.20;;
19673;SDS011;9986;50.610;7.230;2023-03-01T11:36:01;12.97;;;9.63;;
19673;SDS011;9986;50.610;7.230;2023-03-01T11:38:41;11.13;;;8.70;;
19673;SDS011;9986;50.610;7.230;2023-03-01T11:41:24;9.80;;;8.27;;
19673;SDS011;9986;50.610;7.230;2023-03-01T11:44:11;15.20;;;9.67;;
19673;SDS011;9986;50.610;7.230;2023-03-01T11:47:01;11.87;;;9.80;;
19673;SDS011;9986;50.610;7.230;2023-03-01T11:49:56;12.07;;;8.83;;
19673;SDS011;9986;50.610;7.230;2023-03-01T11:52:55;12.53;;;8.80;;
19673;SDS011;9986;50.610;7.230;2023-03-01T11:55:49;25.70;;;18.27;;
19673;SDS011;9986;50.610;7.230;2023-03-01T12:01:09;9.80;;;8.20;;
19673;SDS011;9986;50.610;7.230;2023-03-01T12:06:48;13.67;;;8.83;;
19673;SDS011;9986;50.610;7.230;2023-03-01T12:12:11;12.97;;;9.00;;
19673;SDS011;9986;50.610;7.230;2023-03-01T12:18:20;9.87;;;8.07;;
19673;SDS011;9986;50.610;7.230;2023-03-01T12:27:14;8.53;;;7.23;;
19673;SDS011;9986;50.610;7.230;2023-03-01T12:29:59;9.97;;;7.27;;
19673;SDS011;9986;50.610;7.230;2023-03-01T12:35:25;7.47;;;6.40;;
19673;SDS011;9986;50.610;7.230;2023-03-01T12:38:14;8.07;;;6.90;;
19673;SDS011;9986;50.610;7.230;2023-03-01T12:46:31;10.97;;;7.17;;
19673;SDS011;9986;50.610;7.230;2023-03-01T12:51:50;9.83;;;7.20;;
19673;SDS011;9986;50.610;7.230;2023-03-01T12:54:38;7.90;;;6.27;;
19673;SDS011;9986;50.610;7.230;2023-03-01T12:57:17;8.13;;;6.47;;
19673;SDS011;9986;50.610;7.230;2023-03-01T13:00:00;9.40;;;6.57;;
19673;SDS011;9986;50.610;7.230;2023-03-01T13:02:40;9.60;;;7.67;;
19673;SDS011;9986;50.610;7.230;2023-03-01T13:05:26;8.57;;;6.57;;
19673;SDS011;9986;50.610;7.230;2023-03-01T13:08:07;7.70;;;5.90;;
19673;SDS011;9986;50.610;7.230;2023-03-01T13:10:52;7.60;;;6.27;;
19673;SDS011;9986;50.610;7.230;2023-03-01T13:13:33;9.60;;;6.60;;
19673;SDS011;9986;50.610;7.230;2023-03-01T13:16:20;7.60;;;6.63;;
19673;SDS011;9986;50.610;7.230;2023-03-01T13:19:06;7.63;;;5.83;;
19673;SDS011;9986;50.610;7.230;2023-03-01T13:21:53;7.17;;;5.97;;
19673;SDS011;9986;50.610;7.230;2023-03-01T13:24:33;6.53;;;5.43;;
19673;SDS011;9986;50.610;7.230;2023-03-01T13:29:56;5.73;;;4.80;;
19673;SDS011;9986;50.610;7.230;2023-03-01T13:35:08;5.20;;;4.67;;
19673;SDS011;9986;50.610;7.230;2023-03-01T13:43:37;6.17;;;5.53;;
19673;SDS011;9986;50.610;7.230;2023-03-01T13:48:56;5.23;;;4.73;;
19673;SDS011;9986;50.610;7.230;2023-03-01T13:51:36;6.83;;;5.07;;
19673;SDS011;9986;50.610;7.230;2023-03-01T13:54:28;5.37;;;4.87;;
19673;SDS011;9986;50.610;7.230;2023-03-01T13:57:00;5.97;;;5.37;;
19673;SDS011;9986;50.610;7.230;2023-03-01T13:59:38;6.37;;;5.10;;
19673;SDS011;9986;50.610;7.230;2023-03-01T14:02:23;6.60;;;5.63;;
19673;SDS011;9986;50.610;7.230;2023-03-01T14:07:37;5.97;;;4.80;;
19673;SDS011;9986;50.610;7.230;2023-03-01T14:12:48;5.53;;;4.07;;
19673;SDS011;9986;50.610;7.230;2023-03-01T14:15:29;7.50;;;4.50;;
19673;SDS011;9986;50.610;7.230;2023-03-01T14:20:50;5.60;;;4.67;;
19673;SDS011;9986;50.610;7.230;2023-03-01T14:25:58;4.67;;;3.90;;
19673;SDS011;9986;50.610;7.230;2023-03-01T14:28:40;5.43;;;4.07;;
19673;SDS011;9986;50.610;7.230;2023-03-01T14:31:32;6.87;;;4.20;;
19673;SDS011;9986;50.610;7.230;2023-03-01T14:36:50;8.10;;;4.00;;
19673;SDS011;9986;50.610;7.230;2023-03-01T14:39:28;4.97;;;4.47;;
19673;SDS011;9986;50.610;7.230;2023-03-01T14:42:06;5.67;;;4.07;;
19673;SDS011;9986;50.610;7.230;2023-03-01T14:44:45;5.30;;;4.80;;
19673;SDS011;9986;50.610;7.230;2023-03-01T14:47:25;6.03;;;5.00;;
19673;SDS011;9986;50.610;7.230;2023-03-01T14:52:35;7.37;;;4.87;;
19673;SDS011;9986;50.610;7.230;2023-03-01T14:57:51;4.93;;;4.30;;
19673;SDS011;9986;50.610;7.230;2023-03-01T15:00:35;5.10;;;4.60;;
19673;SDS011;9986;50.610;7.230;2023-03-01T15:05:49;7.33;;;4.90;;
19673;SDS011;9986;50.610;7.230;2023-03-01T15:11:05;7.27;;;4.60;;
19673;SDS011;9986;50.610;7.230;2023-03-01T15:13:45;5.13;;;4.60;;
19673;SDS011;9986;50.610;7.230;2023-03-01T15:16:31;7.53;;;4.70;;
19673;SDS011;9986;50.610;7.230;2023-03-01T15:19:15;5.63;;;4.10;;
19673;SDS011;9986;50.610;7.230;2023-03-01T15:24:26;6.13;;;4.53;;
19673;SDS011;9986;50.610;7.230;2023-03-01T15:29:36;4.90;;;3.97;;
19673;SDS011;9986;50.610;7.230;2023-03-01T15:35:01;4.27;;;3.70;;
19673;SDS011;9986;50.610;7.230;2023-03-01T15:40:29;4.07;;;3.63;;
19673;SDS011;9986;50.610;7.230;2023-03-01T15:45:36;3.60;;;3.03;;
19673;SDS011;9986;50.610;7.230;2023-03-01T15:48:16;5.27;;;3.77;;
19673;SDS011;9986;50.610;7.230;2023-03-01T15:53:30;4.53;;;3.20;;
19673;SDS011;9986;50.610;7.230;2023-03-01T15:58:45;5.73;;;3.83;;
19673;SDS011;9986;50.610;7.230;2023-03-01T16:01:23;4.17;;;3.47;;
19673;SDS011;9986;50.610;7.230;2023-03-01T16:04:00;5.23;;;3.37;;
19673;SDS011;9986;50.610;7.230;2023-03-01T16:06:38;5.33;;;3.43;;
19673;SDS011;9986;50.610;7.230;2023-03-01T16:09:16;3.20;;;2.83;;
19673;SDS011;9986;50.610;7.230;2023-03-01T16:11:55;3.30;;;2.83;;
19673;SDS011;9986;50.610;7.230;2023-03-01T16:14:38;3.63;;;3.00;;
19673;SDS011;9986;50.610;7.230;2023-03-01T16:17:16;5.27;;;3.20;;
19673;SDS011;9986;50.610;7.230;2023-03-01T16:20:03;3.67;;;2.70;;
19673;SDS011;9986;50.610;7.230;2023-03-01T16:25:11;3.47;;;2.53;;
19673;SDS011;9986;50.610;7.230;2023-03-01T16:27:49;4.97;;;2.80;;
19673;SDS011;9986;50.610;7.230;2023-03-01T16:30:27;3.37;;;2.80;;
19673;SDS011;9986;50.610;7.230;2023-03-01T16:33:05;3.13;;;2.90;;
19673;SDS011;9986;50.610;7.230;2023-03-01T16:35:49;4.17;;;2.90;;
19673;SDS011;9986;50.610;7.230;2023-03-01T16:38:26;3.57;;;3.27;;
19673;SDS011;9986;50.610;7.230;2023-03-01T16:41:12;3.73;;;2.50;;
19673;SDS011;9986;50.610;7.230;2023-03-01T16:46:23;3.30;;;2.83;;
19673;SDS011;9986;50.610;7.230;2023-03-01T16:49:00;2.97;;;2.63;;
19673;SDS011;9986;50.610;7.230;2023-03-01T16:51:40;3.60;;;3.07;;
19673;SDS011;9986;50.610;7.230;2023-03-01T16:54:18;4.53;;;3.40;;
19673;SDS011;9986;50.610;7.230;2023-03-01T16:56:56;6.63;;;3.07;;
19673;SDS011;9986;50.610;7.230;2023-03-01T16:59:43;3.40;;;3.10;;
19673;SDS011;9986;50.610;7.230;2023-03-01T17:02:26;7.73;;;3.33;;
19673;SDS011;9986;50.610;7.230;2023-03-01T17:07:37;3.73;;;3.37;;
19673;SDS011;9986;50.610;7.230;2023-03-01T17:10:15;4.50;;;3.43;;
19673;SDS011;9986;50.610;7.230;2023-03-01T17:12:53;3.63;;;3.33;;
19673;SDS011;9986;50.610;7.230;2023-03-01T17:18:06;4.13;;;3.53;;
19673;SDS011;9986;50.610;7.230;2023-03-01T17:20:44;5.63;;;3.60;;
19673;SDS011;9986;50.610;7.230;2023-03-01T17:25:59;4.13;;;3.73;;
19673;SDS011;9986;50.610;7.230;2023-03-01T17:31:06;6.23;;;4.43;;
19673;SDS011;9986;50.610;7.230;2023-03-01T17:33:47;5.77;;;4.00;;
19673;SDS011;9986;50.610;7.230;2023-03-01T17:36:25;4.83;;;4.33;;
19673;SDS011;9986;50.610;7.230;2023-03-01T17:41:47;5.73;;;4.30;;
19673;SDS011;9986;50.610;7.230;2023-03-01T17:46:54;4.73;;;4.17;;
19673;SDS011;9986;50.610;7.230;2023-03-01T17:52:03;6.40;;;4.20;;
19673;SDS011;9986;50.610;7.230;2023-03-01T17:54:47;4.83;;;3.97;;
19673;SDS011;9986;50.610;7.230;2023-03-01T18:02:31;7.77;;;4.93;;
19673;SDS011;9986;50.610;7.230;2023-03-01T18:07:49;4.30;;;3.90;;
19673;SDS011;9986;50.610;7.230;2023-03-01T18:10:26;5.03;;;4.60;;
19673;SDS011;9986;50.610;7.230;2023-03-01T18:13:08;4.63;;;4.13;;
19673;SDS011;9986;50.610;7.230;2023-03-01T18:15:45;7.30;;;4.60;;
19673;SDS011;9986;50.610;7.230;2023-03-01T18:18:23;7.07;;;4.87;;
19673;SDS011;9986;50.610;7.230;2023-03-01T18:21:01;4.83;;;4.23;;
19673;SDS011;9986;50.610;7.230;2023-03-01T18:23:39;6.00;;;5.00;;
19673;SDS011;9986;50.610;7.230;2023-03-01T18:31:32;6.53;;;5.00;;
19673;SDS011;9986;50.610;7.230;2023-03-01T18:36:47;7.57;;;4.67;;
19673;SDS011;9986;50.610;7.230;2023-03-01T18:39:26;6.33;;;5.00;;
19673;SDS011;9986;50.610;7.230;2023-03-01T18:50:05;6.27;;;5.30;;
19673;SDS011;9986;50.610;7.230;2023-03-01T18:52:43;5.50;;;4.93;;
19673;SDS011;9986;50.610;7.230;2023-03-01T18:55:22;5.33;;;4.67;;
19673;SDS011;9986;50.610;7.230;2023-03-01T18:58:00;9.23;;;5.53;;
19673;SDS011;9986;50.610;7.230;2023-03-01T19:00:37;6.37;;;5.17;;
19673;SDS011;9986;50.610;7.230;2023-03-01T19:03:15;7.17;;;5.73;;
19673;SDS011;9986;50.610;7.230;2023-03-01T19:05:53;7.27;;;5.17;;
19673;SDS011;9986;50.610;7.230;2023-03-01T19:08:25;7.07;;;5.30;;
19673;SDS011;9986;50.610;7.230;2023-03-01T19:11:04;6.17;;;5.53;;
19673;SDS011;9986;50.610;7.230;2023-03-01T19:13:43;7.80;;;5.47;;
19673;SDS011;9986;50.610;7.230;2023-03-01T19:16:21;9.07;;;5.87;;
19673;SDS011;9986;50.610;7.230;2023-03-01T19:19:00;9.37;;;5.43;;
19673;SDS011;9986;50.610;7.230;2023-03-01T19:21:38;7.30;;;5.33;;
19673;SDS011;9986;50.610;7.230;2023-03-01T19:24:16;6.87;;;5.13;;
19673;SDS011;9986;50.610;7.230;2023-03-01T19:26:56;7.53;;;5.60;;
19673;SDS011;9986;50.610;7.230;2023-03-01T19:29:34;10.60;;;5.87;;
19673;SDS011;9986;50.610;7.230;2023-03-01T19:32:11;7.27;;;5.30;;
19673;SDS011;9986;50.610;7.230;2023-03-01T19:34:49;8.27;;;5.67;;
19673;SDS011;9986;50.610;7.230;2023-03-01T19:37:29;8.40;;;6.03;;
19673;SDS011;9986;50.610;7.230;2023-03-01T19:40:13;10.80;;;5.90;;
19673;SDS011;9986;50.610;7.230;2023-03-01T19:42:50;7.60;;;5.90;;
19673;SDS011;9986;50.610;7.230;2023-03-01T19:45:28;8.40;;;5.37;;
19673;SDS011;9986;50.610;7.230;2023-03-01T19:48:07;8.23;;;5.77;;
19673;SDS011;9986;50.610;7.230;2023-03-01T19:50:45;8.13;;;6.23;;
19673;SDS011;9986;50.610;7.230;2023-03-01T19:53:23;6.13;;;5.43;;
19673;SDS011;9986;50.610;7.230;2023-03-01T19:56:05;8.70;;;5.43;;
19673;SDS011;9986;50.610;7.230;2023-03-01T19:58:44;7.43;;;5.47;;
19673;SDS011;9986;50.610;7.230;2023-03-01T20:01:21;8.60;;;6.07;;
19673;SDS011;9986;50.610;7.230;2023-03-01T20:03:59;7.90;;;5.77;;
19673;SDS011;9986;50.610;7.230;2023-03-01T20:06:42;7.33;;;5.37;;
19673;SDS011;9986;50.610;7.230;2023-03-01T20:09:27;11.50;;;6.33;;
19673;SDS011;9986;50.610;7.230;2023-03-01T20:12:05;9.03;;;6.13;;
19673;SDS011;9986;50.610;7.230;2023-03-01T20:14:43;6.97;;;6.00;;
19673;SDS011;9986;50.610;7.230;2023-03-01T20:17:20;8.60;;;6.10;;
19673;SDS011;9986;50.610;7.230;2023-03-01T20:19:51;6.77;;;5.33;;
19673;SDS011;9986;50.610;7.230;2023-03-01T20:25:08;9.63;;;5.83;;
19673;SDS011;9986;50.610;7.230;2023-03-01T20:27:46;9.10;;;5.83;;
19673;SDS011;9986;50.610;7.230;2023-03-01T20:30:23;5.77;;;5.17;;
19673;SDS011;9986;50.610;7.230;2023-03-01T20:32:54;6.53;;;5.73;;